sensor_id;sensor_type;location;lat;lon;timestamp;pressure;altitude;pressure_sealevel;temperature;humidity
65376;BME280;51976;47.332;9.404;2023-04-15T00:02:00;91742.91;;;2.44;64.54
65376;BME280;51976;47.332;9.404;2023-04-15T00:04:26;91737.63;;;2.54;64.14
65376;BME280;51976;47.332;9.404;2023-04-15T00:06:52;91733.63;;;2.56;63.94
65376;BME280;51976;47.332;9.404;2023-04-15T00:09:18;91680.06;;;2.27;63.67
65376;BME280;51976;47.332;9.404;2023-04-15T00:11:44;91731.72;;;2.47;64.03
65376;BME280;51976;47.332;9.404;2023-04-15T00:14:11;91735.50;;;2.56;63.72
65376;BME280;51976;47.332;9.404;2023-04-15T00:16:37;91698.06;;;2.05;64.18
65376;BME280;51976;47.332;9.404;2023-04-15T00:19:02;91697.84;;;2.17;63.69
65376;BME280;51976;47.332;9.404;2023-04-15T00:21:28;91741.06;;;2.44;63.89
65376;BME280;51976;47.332;9.404;2023-04-15T00:23:53;91741.03;;;2.39;63.75
65376;BME280;51976;47.332;9.404;2023-04-15T00:26:19;91735.97;;;2.37;63.74
65376;BME280;51976;47.332;9.404;2023-04-15T00:28:45;91747.31;;;2.18;64.13
65376;BME280;51976;47.332;9.404;2023-04-15T00:31:10;91744.44;;;2.29;63.85
65376;BME280;51976;47.332;9.404;2023-04-15T00:33:36;91734.31;;;1.79;65.86
65376;BME280;51976;47.332;9.404;2023-04-15T00:36:01;91728.09;;;1.63;66.62
65376;BME280;51976;47.332;9.404;2023-04-15T00:38:28;91728.19;;;1.79;65.99
65376;BME280;51976;47.332;9.404;2023-04-15T00:40:53;91735.69;;;1.92;65.49
65376;BME280;51976;47.332;9.404;2023-04-15T00:43:19;91731.19;;;1.87;65.58
65376;BME280;51976;47.332;9.404;2023-04-15T00:45:45;91721.66;;;1.91;64.99
65376;BME280;51976;47.332;9.404;2023-04-15T00:48:11;91706.88;;;1.68;65.43
65376;BME280;51976;47.332;9.404;2023-04-15T00:50:37;91721.31;;;1.83;65.62
65376;BME280;51976;47.332;9.404;2023-04-15T00:53:02;91735.00;;;2.07;64.89
65376;BME280;51976;47.332;9.404;2023-04-15T00:55:27;91732.09;;;2.08;64.73
65376;BME280;51976;47.332;9.404;2023-04-15T00:57:53;91717.94;;;1.97;64.56
65376;BME280;51976;47.332;9.404;2023-04-15T01:00:19;91725.63;;;1.94;64.39
65376;BME280;51976;47.332;9.404;2023-04-15T01:02:45;91733.59;;;1.94;64.66
65376;BME280;51976;47.332;9.404;2023-04-15T01:05:10;91727.72;;;1.92;64.67
65376;BME280;51976;47.332;9.404;2023-04-15T01:07:35;91727.72;;;1.87;64.76
65376;BME280;51976;47.332;9.404;2023-04-15T01:10:03;91739.41;;;1.86;64.83
65376;BME280;51976;47.332;9.404;2023-04-15T01:12:31;91731.16;;;1.82;65.00
65376;BME280;51976;47.332;9.404;2023-04-15T01:14:58;91728.81;;;1.91;64.51
65376;BME280;51976;47.332;9.404;2023-04-15T01:17:24;91730.97;;;1.99;64.21
65376;BME280;51976;47.332;9.404;2023-04-15T01:19:50;91726.56;;;2.15;64.01
65376;BME280;51976;47.332;9.404;2023-04-15T01:22:16;91738.91;;;1.89;64.27
65376;BME280;51976;47.332;9.404;2023-04-15T01:25:04;91721.25;;;1.73;64.95
65376;BME280;51976;47.332;9.404;2023-04-15T01:27:30;91732.75;;;1.83;64.60
65376;BME280;51976;47.332;9.404;2023-04-15T01:29:56;91737.81;;;1.85;64.41
65376;BME280;51976;47.332;9.404;2023-04-15T01:32:22;91730.88;;;1.84;64.38
65376;BME280;51976;47.332;9.404;2023-04-15T01:34:48;91729.00;;;1.79;64.83
65376;BME280;51976;47.332;9.404;2023-04-15T01:37:13;91713.66;;;1.49;65.06
65376;BME280;51976;47.332;9.404;2023-04-15T01:39:39;91726.88;;;1.44;65.51
65376;BME280;51976;47.332;9.404;2023-04-15T01:42:05;91729.53;;;1.44;66.14
65376;BME280;51976;47.332;9.404;2023-04-15T01:44:31;91735.53;;;1.61;65.78
65376;BME280;51976;47.332;9.404;2023-04-15T01:46:56;91735.38;;;1.78;65.42
65376;BME280;51976;47.332;9.404;2023-04-15T01:49:21;91731.97;;;1.88;64.80
65376;BME280;51976;47.332;9.404;2023-04-15T01:51:47;91734.63;;;1.88;64.60
65376;BME280;51976;47.332;9.404;2023-04-15T01:54:12;91729.31;;;1.88;64.49
65376;BME280;51976;47.332;9.404;2023-04-15T01:56:38;91737.84;;;1.90;64.03
65376;BME280;51976;47.332;9.404;2023-04-15T01:59:03;91741.56;;;1.89;64.04
65376;BME280;51976;47.332;9.404;2023-04-15T02:01:28;91735.59;;;1.72;64.57
65376;BME280;51976;47.332;9.404;2023-04-15T02:03:54;91735.34;;;1.36;65.76
65376;BME280;51976;47.332;9.404;2023-04-15T02:06:19;91737.84;;;1.21;65.79
65376;BME280;51976;47.332;9.404;2023-04-15T02:08:45;91739.16;;;1.18;66.04
65376;BME280;51976;47.332;9.404;2023-04-15T02:11:10;91736.16;;;1.42;65.57
65376;BME280;51976;47.332;9.404;2023-04-15T02:13:36;91746.41;;;1.60;64.93
65376;BME280;51976;47.332;9.404;2023-04-15T02:16:02;91745.09;;;1.62;64.94
65376;BME280;51976;47.332;9.404;2023-04-15T02:18:27;91743.25;;;1.63;64.54
65376;BME280;51976;47.332;9.404;2023-04-15T02:20:53;91732.34;;;1.64;64.35
65376;BME280;51976;47.332;9.404;2023-04-15T02:23:18;91739.91;;;1.46;64.63
65376;BME280;51976;47.332;9.404;2023-04-15T02:25:44;91726.88;;;1.44;64.38
65376;BME280;51976;47.332;9.404;2023-04-15T02:28:09;91741.25;;;1.48;64.52
65376;BME280;51976;47.332;9.404;2023-04-15T02:30:35;91738.16;;;1.56;64.23
65376;BME280;51976;47.332;9.404;2023-04-15T02:33:02;91736.78;;;1.54;64.29
65376;BME280;51976;47.332;9.404;2023-04-15T02:35:27;91734.97;;;1.59;64.33
65376;BME280;51976;47.332;9.404;2023-04-15T02:37:53;91743.50;;;1.61;63.98
65376;BME280;51976;47.332;9.404;2023-04-15T02:40:18;91733.97;;;1.70;63.91
65376;BME280;51976;47.332;9.404;2023-04-15T02:42:44;91737.47;;;1.39;64.13
65376;BME280;51976;47.332;9.404;2023-04-15T02:45:10;91741.97;;;1.33;64.53
65376;BME280;51976;47.332;9.404;2023-04-15T02:47:36;91736.72;;;1.44;64.37
65376;BME280;51976;47.332;9.404;2023-04-15T02:50:02;91735.44;;;1.51;64.37
65376;BME280;51976;47.332;9.404;2023-04-15T02:52:28;91727.47;;;1.51;64.27
65376;BME280;51976;47.332;9.404;2023-04-15T02:54:53;91722.94;;;1.47;64.25
65376;BME280;51976;47.332;9.404;2023-04-15T02:57:25;91733.59;;;1.52;64.22
65376;BME280;51976;47.332;9.404;2023-04-15T02:59:51;91733.13;;;1.60;63.82
65376;BME280;51976;47.332;9.404;2023-04-15T03:02:17;91727.31;;;1.68;63.97
65376;BME280;51976;47.332;9.404;2023-04-15T03:04:42;91725.72;;;1.62;63.93
65376;BME280;51976;47.332;9.404;2023-04-15T03:07:08;91730.44;;;1.55;63.76
65376;BME280;51976;47.332;9.404;2023-04-15T03:09:33;91727.97;;;1.48;63.88
65376;BME280;51976;47.332;9.404;2023-04-15T03:11:59;91734.00;;;1.39;64.14
65376;BME280;51976;47.332;9.404;2023-04-15T03:14:24;91728.38;;;1.30;64.21
65376;BME280;51976;47.332;9.404;2023-04-15T03:16:50;91735.34;;;1.36;64.33
65376;BME280;51976;47.332;9.404;2023-04-15T03:19:16;91730.38;;;1.50;64.20
65376;BME280;51976;47.332;9.404;2023-04-15T03:21:41;91682.34;;;1.19;63.96
65376;BME280;51976;47.332;9.404;2023-04-15T03:24:06;91731.75;;;1.52;64.04
65376;BME280;51976;47.332;9.404;2023-04-15T03:26:32;91726.59;;;1.41;64.35
65376;BME280;51976;47.332;9.404;2023-04-15T03:28:57;91735.19;;;1.21;64.77
65376;BME280;51976;47.332;9.404;2023-04-15T03:31:23;91730.53;;;1.33;64.63
65376;BME280;51976;47.332;9.404;2023-04-15T03:33:48;91729.59;;;1.49;64.30
65376;BME280;51976;47.332;9.404;2023-04-15T03:36:14;91725.22;;;1.33;64.31
65376;BME280;51976;47.332;9.404;2023-04-15T03:38:40;91734.25;;;1.32;64.57
65376;BME280;51976;47.332;9.404;2023-04-15T03:41:05;91735.25;;;1.26;64.35
65376;BME280;51976;47.332;9.404;2023-04-15T03:43:31;91736.66;;;1.33;64.23
65376;BME280;51976;47.332;9.404;2023-04-15T03:45:57;91745.19;;;1.41;64.07
65376;BME280;51976;47.332;9.404;2023-04-15T03:48:22;91736.69;;;1.12;64.70
65376;BME280;51976;47.332;9.404;2023-04-15T03:50:48;91728.88;;;0.95;65.39
65376;BME280;51976;47.332;9.404;2023-04-15T03:53:14;91729.91;;;0.94;65.63
65376;BME280;51976;47.332;9.404;2023-04-15T03:55:39;91729.28;;;1.09;65.04
65376;BME280;51976;47.332;9.404;2023-04-15T03:58:05;91733.78;;;1.13;64.98
65376;BME280;51976;47.332;9.404;2023-04-15T04:00:30;91734.28;;;1.05;64.79
65376;BME280;51976;47.332;9.404;2023-04-15T04:02:56;91731.38;;;1.07;64.90
65376;BME280;51976;47.332;9.404;2023-04-15T04:05:21;91734.03;;;1.07;64.71
65376;BME280;51976;47.332;9.404;2023-04-15T04:07:47;91700.84;;;0.77;64.71
65376;BME280;51976;47.332;9.404;2023-04-15T04:10:12;91740.13;;;1.07;64.64
65376;BME280;51976;47.332;9.404;2023-04-15T04:12:38;91743.06;;;1.11;64.35
65376;BME280;51976;47.332;9.404;2023-04-15T04:15:04;91737.75;;;1.11;64.65
65376;BME280;51976;47.332;9.404;2023-04-15T04:17:29;91744.47;;;1.18;64.48
65376;BME280;51976;47.332;9.404;2023-04-15T04:19:54;91743.47;;;1.24;64.39
65376;BME280;51976;47.332;9.404;2023-04-15T04:22:23;91745.13;;;1.30;64.08
65376;BME280;51976;47.332;9.404;2023-04-15T04:24:49;91751.75;;;1.01;65.21
65376;BME280;51976;47.332;9.404;2023-04-15T04:27:14;91706.47;;;0.86;64.92
65376;BME280;51976;47.332;9.404;2023-04-15T04:29:40;91750.72;;;1.34;64.52
65376;BME280;51976;47.332;9.404;2023-04-15T04:32:05;91762.72;;;1.42;64.19
65376;BME280;51976;47.332;9.404;2023-04-15T04:34:31;91764.91;;;1.50;64.06
65376;BME280;51976;47.332;9.404;2023-04-15T04:36:56;91762.31;;;1.55;63.95
65376;BME280;51976;47.332;9.404;2023-04-15T04:39:22;91755.00;;;1.40;64.14
65376;BME280;51976;47.332;9.404;2023-04-15T04:41:47;91756.66;;;1.46;64.36
65376;BME280;51976;47.332;9.404;2023-04-15T04:44:13;91756.16;;;1.49;63.90
65376;BME280;51976;47.332;9.404;2023-04-15T04:46:38;91760.69;;;1.54;64.26
65376;BME280;51976;47.332;9.404;2023-04-15T04:49:04;91762.00;;;1.51;63.96
65376;BME280;51976;47.332;9.404;2023-04-15T04:51:30;91755.19;;;1.60;63.86
65376;BME280;51976;47.332;9.404;2023-04-15T04:53:56;91754.13;;;1.66;63.54
65376;BME280;51976;47.332;9.404;2023-04-15T04:56:22;91755.94;;;1.56;64.06
65376;BME280;51976;47.332;9.404;2023-04-15T04:58:47;91758.09;;;1.59;64.10
65376;BME280;51976;47.332;9.404;2023-04-15T05:01:12;91758.09;;;1.59;64.05
65376;BME280;51976;47.332;9.404;2023-04-15T05:03:38;91758.88;;;1.59;64.16
65376;BME280;51976;47.332;9.404;2023-04-15T05:06:03;91754.13;;;1.61;64.32
65376;BME280;51976;47.332;9.404;2023-04-15T05:08:31;91753.88;;;1.68;64.20
65376;BME280;51976;47.332;9.404;2023-04-15T05:10:57;91751.31;;;1.78;64.20
65376;BME280;51976;47.332;9.404;2023-04-15T05:13:22;91755.34;;;1.86;64.03
65376;BME280;51976;47.332;9.404;2023-04-15T05:15:48;91743.56;;;1.72;64.16
65376;BME280;51976;47.332;9.404;2023-04-15T05:18:13;91746.75;;;1.74;64.46
65376;BME280;51976;47.332;9.404;2023-04-15T05:20:38;91755.84;;;1.83;64.12
65376;BME280;51976;47.332;9.404;2023-04-15T05:23:04;91749.81;;;1.97;63.75
65376;BME280;51976;47.332;9.404;2023-04-15T05:25:30;91749.94;;;2.13;63.63
65376;BME280;51976;47.332;9.404;2023-04-15T05:27:55;91751.28;;;2.15;63.67
65376;BME280;51976;47.332;9.404;2023-04-15T05:30:21;91737.97;;;2.10;63.49
65376;BME280;51976;47.332;9.404;2023-04-15T05:32:46;91744.97;;;2.31;63.25
65376;BME280;51976;47.332;9.404;2023-04-15T05:35:12;91741.78;;;2.34;63.38
65376;BME280;51976;47.332;9.404;2023-04-15T05:37:37;91713.03;;;2.26;63.52
65376;BME280;51976;47.332;9.404;2023-04-15T05:40:03;91755.47;;;2.58;63.30
65376;BME280;51976;47.332;9.404;2023-04-15T05:42:28;91743.25;;;2.67;63.41
65376;BME280;51976;47.332;9.404;2023-04-15T05:44:54;91743.53;;;2.66;63.69
65376;BME280;51976;47.332;9.404;2023-04-15T05:47:19;91740.91;;;2.81;63.20
65376;BME280;51976;47.332;9.404;2023-04-15T05:49:45;91739.88;;;2.97;62.87
65376;BME280;51976;47.332;9.404;2023-04-15T05:52:10;91709.50;;;2.88;62.42
65376;BME280;51976;47.332;9.404;2023-04-15T05:54:36;91705.81;;;2.99;62.30
65376;BME280;51976;47.332;9.404;2023-04-15T05:57:01;91735.66;;;3.12;62.22
65376;BME280;51976;47.332;9.404;2023-04-15T05:59:27;91730.59;;;3.00;62.04
65376;BME280;51976;47.332;9.404;2023-04-15T06:01:52;91719.94;;;3.10;61.96
65376;BME280;51976;47.332;9.404;2023-04-15T06:04:18;91737.28;;;3.28;61.59
65376;BME280;51976;47.332;9.404;2023-04-15T06:06:43;91670.69;;;3.13;60.71
65376;BME280;51976;47.332;9.404;2023-04-15T06:09:09;91697.31;;;3.43;60.09
65376;BME280;51976;47.332;9.404;2023-04-15T06:11:35;91721.56;;;3.77;59.88
65376;BME280;51976;47.332;9.404;2023-04-15T06:14:00;91717.78;;;4.03;59.08
65376;BME280;51976;47.332;9.404;2023-04-15T06:16:26;91702.31;;;4.05;58.90
65376;BME280;51976;47.332;9.404;2023-04-15T06:18:51;91651.41;;;3.97;57.67
65376;BME280;51976;47.332;9.404;2023-04-15T06:21:17;91704.84;;;4.46;57.11
65376;BME280;51976;47.332;9.404;2023-04-15T06:23:43;91718.44;;;4.60;57.58
65376;BME280;51976;47.332;9.404;2023-04-15T06:26:08;91715.31;;;4.27;58.20
65376;BME280;51976;47.332;9.404;2023-04-15T06:28:34;91717.41;;;4.40;58.19
65376;BME280;51976;47.332;9.404;2023-04-15T06:31:00;91720.34;;;4.44;58.15
65376;BME280;51976;47.332;9.404;2023-04-15T06:33:26;91725.66;;;4.54;58.58
65376;BME280;51976;47.332;9.404;2023-04-15T06:35:51;91683.50;;;4.51;57.89
65376;BME280;51976;47.332;9.404;2023-04-15T06:38:17;91726.25;;;4.95;57.71
65376;BME280;51976;47.332;9.404;2023-04-15T06:40:42;91723.41;;;4.82;57.48
65376;BME280;51976;47.332;9.404;2023-04-15T06:43:08;91724.19;;;4.82;57.51
65376;BME280;51976;47.332;9.404;2023-04-15T06:45:33;91724.22;;;4.77;57.92
65376;BME280;51976;47.332;9.404;2023-04-15T06:47:59;91719.66;;;4.83;57.65
65376;BME280;51976;47.332;9.404;2023-04-15T06:50:25;91725.78;;;4.88;57.76
65376;BME280;51976;47.332;9.404;2023-04-15T06:52:50;91723.75;;;5.19;57.49
65376;BME280;51976;47.332;9.404;2023-04-15T06:55:16;91723.41;;;5.26;57.26
65376;BME280;51976;47.332;9.404;2023-04-15T06:57:41;91728.38;;;5.42;56.95
65376;BME280;51976;47.332;9.404;2023-04-15T07:00:07;91725.06;;;5.56;56.83
65376;BME280;51976;47.332;9.404;2023-04-15T07:02:32;91720.97;;;5.68;56.23
65376;BME280;51976;47.332;9.404;2023-04-15T07:04:58;91718.44;;;5.82;55.30
65376;BME280;51976;47.332;9.404;2023-04-15T07:07:23;91721.84;;;5.98;54.83
65376;BME280;51976;47.332;9.404;2023-04-15T07:09:49;91716.84;;;6.15;54.17
65376;BME280;51976;47.332;9.404;2023-04-15T07:12:15;91723.00;;;6.16;53.68
65376;BME280;51976;47.332;9.404;2023-04-15T07:14:40;91654.44;;;5.96;53.65
65376;BME280;51976;47.332;9.404;2023-04-15T07:17:07;91719.25;;;6.40;53.66
65376;BME280;51976;47.332;9.404;2023-04-15T07:19:32;91720.09;;;6.36;53.90
65376;BME280;51976;47.332;9.404;2023-04-15T07:21:58;91722.16;;;6.20;55.00
65376;BME280;51976;47.332;9.404;2023-04-15T07:24:23;91716.41;;;6.32;54.78
65376;BME280;51976;47.332;9.404;2023-04-15T07:26:52;91722.94;;;6.50;55.27
65376;BME280;51976;47.332;9.404;2023-04-15T07:29:17;91707.94;;;6.72;54.87
65376;BME280;51976;47.332;9.404;2023-04-15T07:31:43;91693.97;;;6.75;54.57
65376;BME280;51976;47.332;9.404;2023-04-15T07:34:08;91710.03;;;6.75;55.18
65376;BME280;51976;47.332;9.404;2023-04-15T07:36:33;91711.59;;;7.00;54.52
65376;BME280;51976;47.332;9.404;2023-04-15T07:38:59;91706.81;;;7.16;53.77
65376;BME280;51976;47.332;9.404;2023-04-15T07:41:27;91712.63;;;7.23;53.25
65376;BME280;51976;47.332;9.404;2023-04-15T07:43:53;91707.19;;;7.47;52.76
65376;BME280;51976;47.332;9.404;2023-04-15T07:46:18;91709.66;;;7.43;51.58
65376;BME280;51976;47.332;9.404;2023-04-15T07:48:43;91706.13;;;7.48;51.62
65376;BME280;51976;47.332;9.404;2023-04-15T07:51:09;91708.78;;;7.48;50.92
65376;BME280;51976;47.332;9.404;2023-04-15T07:53:35;91711.03;;;7.41;50.93
65376;BME280;51976;47.332;9.404;2023-04-15T07:56:00;91714.59;;;7.36;51.61
65376;BME280;51976;47.332;9.404;2023-04-15T07:58:25;91709.75;;;7.57;51.46
65376;BME280;51976;47.332;9.404;2023-04-15T08:00:51;91710.69;;;7.47;51.03
65376;BME280;51976;47.332;9.404;2023-04-15T08:03:17;91707.84;;;7.39;50.84
65376;BME280;51976;47.332;9.404;2023-04-15T08:05:42;91693.66;;;7.57;50.63
65376;BME280;51976;47.332;9.404;2023-04-15T08:08:07;91659.50;;;7.44;49.56
65376;BME280;51976;47.332;9.404;2023-04-15T08:10:33;91699.91;;;7.85;48.94
65376;BME280;51976;47.332;9.404;2023-04-15T08:12:59;91701.44;;;7.72;48.98
65376;BME280;51976;47.332;9.404;2023-04-15T08:15:25;91695.09;;;8.01;49.39
65376;BME280;51976;47.332;9.404;2023-04-15T08:17:50;91689.63;;;8.06;48.08
65376;BME280;51976;47.332;9.404;2023-04-15T08:20:16;91697.81;;;8.14;47.43
65376;BME280;51976;47.332;9.404;2023-04-15T08:22:41;91699.19;;;8.44;47.21
65376;BME280;51976;47.332;9.404;2023-04-15T08:25:07;91691.44;;;8.43;47.47
65376;BME280;51976;47.332;9.404;2023-04-15T08:27:33;91687.16;;;8.56;46.97
65376;BME280;51976;47.332;9.404;2023-04-15T08:29:59;91697.72;;;8.66;46.61
65376;BME280;51976;47.332;9.404;2023-04-15T08:32:24;91698.59;;;9.02;46.45
65376;BME280;51976;47.332;9.404;2023-04-15T08:34:50;91697.69;;;9.21;45.28
65376;BME280;51976;47.332;9.404;2023-04-15T08:37:16;91692.78;;;9.23;45.12
65376;BME280;51976;47.332;9.404;2023-04-15T08:39:41;91687.06;;;9.38;44.68
65376;BME280;51976;47.332;9.404;2023-04-15T08:42:11;91685.97;;;9.39;43.47
65376;BME280;51976;47.332;9.404;2023-04-15T08:44:41;91697.44;;;9.67;43.36
65376;BME280;51976;47.332;9.404;2023-04-15T08:47:08;91691.34;;;9.75;43.07
65376;BME280;51976;47.332;9.404;2023-04-15T08:49:38;91688.47;;;9.71;43.23
65376;BME280;51976;47.332;9.404;2023-04-15T08:52:05;91690.25;;;9.76;43.32
65376;BME280;51976;47.332;9.404;2023-04-15T08:54:30;91686.28;;;9.96;43.43
65376;BME280;51976;47.332;9.404;2023-04-15T08:56:57;91686.78;;;9.39;44.00
65376;BME280;51976;47.332;9.404;2023-04-15T08:59:23;91687.06;;;9.02;44.00
65376;BME280;51976;47.332;9.404;2023-04-15T09:01:49;91696.13;;;8.92;44.88
65376;BME280;51976;47.332;9.404;2023-04-15T09:04:16;91697.28;;;9.27;45.13
65376;BME280;51976;47.332;9.404;2023-04-15T09:06:41;91694.22;;;9.56;44.88
65376;BME280;51976;47.332;9.404;2023-04-15T09:09:06;91687.25;;;9.55;45.08
65376;BME280;51976;47.332;9.404;2023-04-15T09:11:32;91695.63;;;9.54;44.96
65376;BME280;51976;47.332;9.404;2023-04-15T09:13:57;91695.03;;;9.43;45.04
65376;BME280;51976;47.332;9.404;2023-04-15T09:16:22;91683.88;;;9.49;44.87
65376;BME280;51976;47.332;9.404;2023-04-15T09:18:48;91662.63;;;9.12;44.88
65376;BME280;51976;47.332;9.404;2023-04-15T09:21:15;91701.66;;;9.59;44.76
65376;BME280;51976;47.332;9.404;2023-04-15T09:23:54;91702.50;;;9.46;45.43
65376;BME280;51976;47.332;9.404;2023-04-15T09:26:34;91703.19;;;9.52;45.14
65376;BME280;51976;47.332;9.404;2023-04-15T09:29:07;91704.53;;;9.13;45.95
65376;BME280;51976;47.332;9.404;2023-04-15T09:31:33;91703.44;;;9.14;46.17
65376;BME280;51976;47.332;9.404;2023-04-15T09:33:59;91705.03;;;9.29;46.16
65376;BME280;51976;47.332;9.404;2023-04-15T09:36:24;91707.53;;;9.25;46.04
65376;BME280;51976;47.332;9.404;2023-04-15T09:38:59;91711.03;;;9.26;45.91
65376;BME280;51976;47.332;9.404;2023-04-15T09:41:25;91706.09;;;9.41;46.50
65376;BME280;51976;47.332;9.404;2023-04-15T09:43:51;91715.00;;;9.28;46.76
65376;BME280;51976;47.332;9.404;2023-04-15T09:46:17;91715.31;;;9.27;46.54
65376;BME280;51976;47.332;9.404;2023-04-15T09:48:42;91712.00;;;9.30;46.46
65376;BME280;51976;47.332;9.404;2023-04-15T09:51:08;91706.09;;;9.41;46.04
65376;BME280;51976;47.332;9.404;2023-04-15T09:53:35;91702.47;;;9.24;46.77
65376;BME280;51976;47.332;9.404;2023-04-15T09:56:01;91713.50;;;9.08;46.75
65376;BME280;51976;47.332;9.404;2023-04-15T09:58:31;91697.09;;;9.10;47.51
65376;BME280;51976;47.332;9.404;2023-04-15T10:00:59;91705.16;;;9.24;47.68
65376;BME280;51976;47.332;9.404;2023-04-15T10:03:31;91706.28;;;9.45;47.05
65376;BME280;51976;47.332;9.404;2023-04-15T10:05:59;91706.56;;;9.57;47.10
65376;BME280;51976;47.332;9.404;2023-04-15T10:08:29;91707.00;;;9.37;47.84
65376;BME280;51976;47.332;9.404;2023-04-15T10:10:55;91706.84;;;9.20;48.15
65376;BME280;51976;47.332;9.404;2023-04-15T10:13:25;91702.94;;;9.26;48.25
65376;BME280;51976;47.332;9.404;2023-04-15T10:16:00;91706.03;;;9.05;48.64
65376;BME280;51976;47.332;9.404;2023-04-15T10:18:30;91703.00;;;9.34;48.07
65376;BME280;51976;47.332;9.404;2023-04-15T10:20:56;91699.41;;;9.53;47.66
65376;BME280;51976;47.332;9.404;2023-04-15T10:23:24;91699.66;;;9.29;48.14
65376;BME280;51976;47.332;9.404;2023-04-15T10:25:52;91715.50;;;9.16;48.79
65376;BME280;51976;47.332;9.404;2023-04-15T10:28:21;91681.47;;;8.98;48.86
65376;BME280;51976;47.332;9.404;2023-04-15T10:30:47;91713.22;;;9.24;48.40
65376;BME280;51976;47.332;9.404;2023-04-15T10:33:15;91709.44;;;9.25;49.33
65376;BME280;51976;47.332;9.404;2023-04-15T10:35:42;91715.16;;;9.32;49.05
65376;BME280;51976;47.332;9.404;2023-04-15T10:38:31;91716.56;;;9.43;49.09
65376;BME280;51976;47.332;9.404;2023-04-15T10:41:17;91714.97;;;9.42;48.65
65376;BME280;51976;47.332;9.404;2023-04-15T10:43:49;91716.41;;;9.26;48.55
65376;BME280;51976;47.332;9.404;2023-04-15T10:46:22;91717.38;;;9.30;47.96
65376;BME280;51976;47.332;9.404;2023-04-15T10:48:49;91722.16;;;9.05;48.41
65376;BME280;51976;47.332;9.404;2023-04-15T10:51:15;91719.88;;;9.26;48.55
65376;BME280;51976;47.332;9.404;2023-04-15T10:53:41;91727.31;;;9.43;47.47
65376;BME280;51976;47.332;9.404;2023-04-15T10:56:07;91732.50;;;9.39;47.64
65376;BME280;51976;47.332;9.404;2023-04-15T10:58:42;91731.19;;;9.37;47.51
65376;BME280;51976;47.332;9.404;2023-04-15T11:01:08;91713.91;;;9.29;48.50
65376;BME280;51976;47.332;9.404;2023-04-15T11:03:38;91732.28;;;9.49;48.58
65376;BME280;51976;47.332;9.404;2023-04-15T11:06:05;91730.38;;;9.50;49.00
65376;BME280;51976;47.332;9.404;2023-04-15T11:08:54;91735.41;;;9.15;48.71
65376;BME280;51976;47.332;9.404;2023-04-15T11:11:21;91734.50;;;9.34;48.78
65376;BME280;51976;47.332;9.404;2023-04-15T11:13:47;91735.91;;;9.18;48.54
65376;BME280;51976;47.332;9.404;2023-04-15T11:16:13;91737.22;;;9.20;49.05
65376;BME280;51976;47.332;9.404;2023-04-15T11:18:39;91735.13;;;9.03;49.10
65376;BME280;51976;47.332;9.404;2023-04-15T11:21:06;91753.13;;;9.03;49.87
65376;BME280;51976;47.332;9.404;2023-04-15T11:23:37;91755.72;;;9.08;49.60
65376;BME280;51976;47.332;9.404;2023-04-15T11:26:05;91752.25;;;9.07;49.65
65376;BME280;51976;47.332;9.404;2023-04-15T11:28:33;91754.44;;;8.92;47.24
65376;BME280;51976;47.332;9.404;2023-04-15T11:31:06;91748.75;;;9.21;47.27
65376;BME280;51976;47.332;9.404;2023-04-15T11:33:32;91745.28;;;9.20;47.77
65376;BME280;51976;47.332;9.404;2023-04-15T11:35:58;91747.75;;;9.30;47.30
65376;BME280;51976;47.332;9.404;2023-04-15T11:38:23;91754.72;;;9.04;46.39
65376;BME280;51976;47.332;9.404;2023-04-15T11:40:49;91718.09;;;8.80;46.94
65376;BME280;51976;47.332;9.404;2023-04-15T11:43:17;91754.63;;;9.23;45.24
65376;BME280;51976;47.332;9.404;2023-04-15T11:45:50;91772.47;;;9.19;45.31
65376;BME280;51976;47.332;9.404;2023-04-15T11:48:16;91772.16;;;9.20;45.75
65376;BME280;51976;47.332;9.404;2023-04-15T11:50:41;91770.88;;;9.18;46.59
65376;BME280;51976;47.332;9.404;2023-04-15T11:53:10;91784.50;;;8.94;45.89
65376;BME280;51976;47.332;9.404;2023-04-15T11:55:46;91787.78;;;9.04;45.74
65376;BME280;51976;47.332;9.404;2023-04-15T11:58:17;91788.19;;;9.25;45.68
65376;BME280;51976;47.332;9.404;2023-04-15T12:00:57;91796.06;;;8.94;46.02
65376;BME280;51976;47.332;9.404;2023-04-15T12:03:28;91795.56;;;8.92;46.37
65376;BME280;51976;47.332;9.404;2023-04-15T12:06:14;91801.44;;;8.94;46.43
65376;BME280;51976;47.332;9.404;2023-04-15T12:08:56;91800.13;;;8.92;46.58
65376;BME280;51976;47.332;9.404;2023-04-15T12:11:34;91810.09;;;9.05;45.70
65376;BME280;51976;47.332;9.404;2023-04-15T12:14:08;91812.66;;;8.82;46.13
65376;BME280;51976;47.332;9.404;2023-04-15T12:16:38;91765.13;;;8.51;46.18
65376;BME280;51976;47.332;9.404;2023-04-15T12:19:06;91822.28;;;8.70;45.67
65376;BME280;51976;47.332;9.404;2023-04-15T12:21:34;91825.13;;;8.92;45.49
65376;BME280;51976;47.332;9.404;2023-04-15T12:24:02;91821.13;;;9.03;45.38
65376;BME280;51976;47.332;9.404;2023-04-15T12:26:32;91823.94;;;8.98;44.59
65376;BME280;51976;47.332;9.404;2023-04-15T12:29:02;91834.81;;;9.21;44.86
65376;BME280;51976;47.332;9.404;2023-04-15T12:31:27;91835.69;;;9.43;44.71
65376;BME280;51976;47.332;9.404;2023-04-15T12:33:56;91831.53;;;9.51;44.60
65376;BME280;51976;47.332;9.404;2023-04-15T12:36:22;91843.09;;;9.52;43.98
65376;BME280;51976;47.332;9.404;2023-04-15T12:38:48;91842.19;;;9.56;44.13
65376;BME280;51976;47.332;9.404;2023-04-15T12:41:14;91844.66;;;9.66;44.32
65376;BME280;51976;47.332;9.404;2023-04-15T12:43:39;91839.56;;;9.78;44.06
65376;BME280;51976;47.332;9.404;2023-04-15T12:46:05;91843.97;;;9.74;43.98
65376;BME280;51976;47.332;9.404;2023-04-15T12:48:33;91847.53;;;9.70;44.40
65376;BME280;51976;47.332;9.404;2023-04-15T12:50:58;91853.22;;;9.82;44.89
65376;BME280;51976;47.332;9.404;2023-04-15T12:53:24;91859.31;;;9.74;43.93
65376;BME280;51976;47.332;9.404;2023-04-15T12:55:50;91861.00;;;9.70;43.80
65376;BME280;51976;47.332;9.404;2023-04-15T12:58:16;91863.81;;;9.51;42.24
65376;BME280;51976;47.332;9.404;2023-04-15T13:00:41;91869.38;;;9.41;41.66
65376;BME280;51976;47.332;9.404;2023-04-15T13:03:07;91874.63;;;9.32;41.47
65376;BME280;51976;47.332;9.404;2023-04-15T13:05:32;91876.72;;;9.35;41.06
65376;BME280;51976;47.332;9.404;2023-04-15T13:07:57;91875.16;;;9.48;40.11